sensor_id;sensor_type;location;lat;lon;timestamp;P1;durP1;ratioP1;P2;durP2;ratioP2
50569;SDS011;36525;49.398;7.614;2023-08-21T00:00:21;10.15;;;3.75;;
50569;SDS011;36525;49.398;7.614;2023-08-21T00:02:48;6.18;;;3.38;;
50569;SDS011;36525;49.398;7.614;2023-08-21T00:05:16;7.97;;;3.40;;
50569;SDS011;36525;49.398;7.614;2023-08-21T00:07:43;6.20;;;3.83;;
50569;SDS011;36525;49.398;7.614;2023-08-21T00:10:11;7.70;;;3.47;;
50569;SDS011;36525;49.398;7.614;2023-08-21T00:12:40;7.78;;;3.05;;
50569;SDS011;36525;49.398;7.614;2023-08-21T00:15:07;7.20;;;3.47;;
50569;SDS011;36525;49.398;7.614;2023-08-21T00:17:36;6.45;;;3.85;;
50569;SDS011;36525;49.398;7.614;2023-08-21T00:20:03;10.50;;;3.63;;
50569;SDS011;36525;49.398;7.614;2023-08-21T00:22:32;8.23;;;3.63;;
50569;SDS011;36525;49.398;7.614;2023-08-21T00:24:59;7.20;;;3.15;;
50569;SDS011;36525;49.398;7.614;2023-08-21T00:27:26;7.10;;;3.67;;
50569;SDS011;36525;49.398;7.614;2023-08-21T00:29:53;8.45;;;3.80;;
50569;SDS011;36525;49.398;7.614;2023-08-21T00:32:20;8.85;;;3.80;;
50569;SDS011;36525;49.398;7.614;2023-08-21T00:34:48;10.68;;;4.07;;
50569;SDS011;36525;49.398;7.614;2023-08-21T00:37:15;8.23;;;3.70;;
50569;SDS011;36525;49.398;7.614;2023-08-21T00:39:42;7.88;;;3.30;;
50569;SDS011;36525;49.398;7.614;2023-08-21T00:42:09;7.45;;;3.50;;
50569;SDS011;36525;49.398;7.614;2023-08-21T00:44:36;7.25;;;3.45;;
50569;SDS011;36525;49.398;7.614;2023-08-21T00:47:03;7.53;;;3.42;;
50569;SDS011;36525;49.398;7.614;2023-08-21T00:49:30;6.03;;;4.00;;
50569;SDS011;36525;49.398;7.614;2023-08-21T00:51:59;8.98;;;3.70;;
50569;SDS011;36525;49.398;7.614;2023-08-21T00:54:27;11.75;;;4.13;;
50569;SDS011;36525;49.398;7.614;2023-08-21T00:56:56;8.65;;;3.65;;
50569;SDS011;36525;49.398;7.614;2023-08-21T00:59:23;10.27;;;4.43;;
50569;SDS011;36525;49.398;7.614;2023-08-21T01:01:50;6.60;;;3.78;;
50569;SDS011;36525;49.398;7.614;2023-08-21T01:04:18;7.22;;;3.80;;
50569;SDS011;36525;49.398;7.614;2023-08-21T01:06:45;11.75;;;4.22;;
50569;SDS011;36525;49.398;7.614;2023-08-21T01:09:17;5.10;;;3.58;;
50569;SDS011;36525;49.398;7.614;2023-08-21T01:15:14;6.80;;;3.53;;
50569;SDS011;36525;49.398;7.614;2023-08-21T01:17:42;5.47;;;2.90;;
50569;SDS011;36525;49.398;7.614;2023-08-21T01:20:12;9.07;;;4.10;;
50569;SDS011;36525;49.398;7.614;2023-08-21T01:22:40;5.53;;;3.92;;
50569;SDS011;36525;49.398;7.614;2023-08-21T01:25:12;4.75;;;3.70;;
50569;SDS011;36525;49.398;7.614;2023-08-21T01:27:41;5.85;;;4.07;;
50569;SDS011;36525;49.398;7.614;2023-08-21T01:30:11;8.07;;;4.70;;
50569;SDS011;36525;49.398;7.614;2023-08-21T01:35:14;9.30;;;4.43;;
50569;SDS011;36525;49.398;7.614;2023-08-21T01:37:41;7.68;;;4.20;;
50569;SDS011;36525;49.398;7.614;2023-08-21T01:40:09;9.50;;;4.15;;
50569;SDS011;36525;49.398;7.614;2023-08-21T01:42:40;9.07;;;4.55;;
50569;SDS011;36525;49.398;7.614;2023-08-21T01:45:07;9.05;;;5.07;;
50569;SDS011;36525;49.398;7.614;2023-08-21T01:47:35;11.02;;;4.63;;
50569;SDS011;36525;49.398;7.614;2023-08-21T01:50:02;8.95;;;4.45;;
50569;SDS011;36525;49.398;7.614;2023-08-21T01:52:29;8.45;;;4.85;;
50569;SDS011;36525;49.398;7.614;2023-08-21T01:54:56;9.32;;;4.10;;
50569;SDS011;36525;49.398;7.614;2023-08-21T01:57:23;8.75;;;4.53;;
50569;SDS011;36525;49.398;7.614;2023-08-21T01:59:51;8.07;;;4.50;;
50569;SDS011;36525;49.398;7.614;2023-08-21T02:02:18;7.90;;;5.05;;
50569;SDS011;36525;49.398;7.614;2023-08-21T02:04:45;9.25;;;4.45;;
50569;SDS011;36525;49.398;7.614;2023-08-21T02:07:12;7.07;;;4.97;;
50569;SDS011;36525;49.398;7.614;2023-08-21T02:09:39;13.80;;;5.43;;
50569;SDS011;36525;49.398;7.614;2023-08-21T02:12:06;9.45;;;4.72;;
50569;SDS011;36525;49.398;7.614;2023-08-21T02:14:34;8.30;;;4.22;;
50569;SDS011;36525;49.398;7.614;2023-08-21T02:17:01;9.50;;;4.40;;
50569;SDS011;36525;49.398;7.614;2023-08-21T02:19:28;10.60;;;5.20;;
50569;SDS011;36525;49.398;7.614;2023-08-21T02:21:56;7.72;;;4.60;;
50569;SDS011;36525;49.398;7.614;2023-08-21T02:24:22;9.88;;;4.85;;
50569;SDS011;36525;49.398;7.614;2023-08-21T02:26:50;8.75;;;4.53;;
50569;SDS011;36525;49.398;7.614;2023-08-21T02:29:17;8.00;;;5.90;;
50569;SDS011;36525;49.398;7.614;2023-08-21T02:31:44;8.73;;;5.20;;
50569;SDS011;36525;49.398;7.614;2023-08-21T02:34:11;12.43;;;4.38;;
50569;SDS011;36525;49.398;7.614;2023-08-21T02:36:38;9.73;;;4.47;;
50569;SDS011;36525;49.398;7.614;2023-08-21T02:39:08;10.15;;;5.47;;
50569;SDS011;36525;49.398;7.614;2023-08-21T02:41:35;8.38;;;5.43;;
50569;SDS011;36525;49.398;7.614;2023-08-21T02:44:02;9.55;;;5.22;;
50569;SDS011;36525;49.398;7.614;2023-08-21T02:46:30;7.35;;;5.18;;
50569;SDS011;36525;49.398;7.614;2023-08-21T02:48:57;8.18;;;4.72;;
50569;SDS011;36525;49.398;7.614;2023-08-21T02:51:24;9.43;;;6.00;;
50569;SDS011;36525;49.398;7.614;2023-08-21T02:53:53;8.77;;;5.47;;
50569;SDS011;36525;49.398;7.614;2023-08-21T02:56:20;9.52;;;5.43;;
50569;SDS011;36525;49.398;7.614;2023-08-21T02:58:47;7.70;;;4.65;;
50569;SDS011;36525;49.398;7.614;2023-08-21T03:01:14;10.57;;;5.88;;
50569;SDS011;36525;49.398;7.614;2023-08-21T03:03:41;8.43;;;5.15;;
50569;SDS011;36525;49.398;7.614;2023-08-21T03:06:08;6.55;;;4.70;;
50569;SDS011;36525;49.398;7.614;2023-08-21T03:08:36;8.07;;;4.63;;
50569;SDS011;36525;49.398;7.614;2023-08-21T03:11:03;10.52;;;4.15;;
50569;SDS011;36525;49.398;7.614;2023-08-21T03:13:30;6.72;;;4.88;;
50569;SDS011;36525;49.398;7.614;2023-08-21T03:15:57;6.57;;;4.80;;
50569;SDS011;36525;49.398;7.614;2023-08-21T03:18:24;7.03;;;4.72;;
50569;SDS011;36525;49.398;7.614;2023-08-21T03:20:57;8.38;;;4.32;;
50569;SDS011;36525;49.398;7.614;2023-08-21T03:23:24;8.52;;;6.07;;
50569;SDS011;36525;49.398;7.614;2023-08-21T03:25:52;8.02;;;4.95;;
50569;SDS011;36525;49.398;7.614;2023-08-21T03:28:19;7.18;;;5.05;;
50569;SDS011;36525;49.398;7.614;2023-08-21T03:30:46;7.53;;;5.85;;
50569;SDS011;36525;49.398;7.614;2023-08-21T03:33:13;8.55;;;5.65;;
50569;SDS011;36525;49.398;7.614;2023-08-21T03:35:40;7.57;;;5.97;;
50569;SDS011;36525;49.398;7.614;2023-08-21T03:38:07;10.10;;;4.90;;
50569;SDS011;36525;49.398;7.614;2023-08-21T03:40:35;6.00;;;4.70;;
50569;SDS011;36525;49.398;7.614;2023-08-21T03:43:04;7.47;;;4.55;;
50569;SDS011;36525;49.398;7.614;2023-08-21T03:45:31;7.30;;;4.68;;
50569;SDS011;36525;49.398;7.614;2023-08-21T03:47:58;7.70;;;5.50;;
50569;SDS011;36525;49.398;7.614;2023-08-21T03:50:26;11.82;;;4.22;;
50569;SDS011;36525;49.398;7.614;2023-08-21T03:52:53;8.35;;;6.05;;
50569;SDS011;36525;49.398;7.614;2023-08-21T03:55:20;7.38;;;4.00;;
50569;SDS011;36525;49.398;7.614;2023-08-21T03:57:47;7.90;;;5.63;;
50569;SDS011;36525;49.398;7.614;2023-08-21T04:00:14;5.85;;;3.92;;
50569;SDS011;36525;49.398;7.614;2023-08-21T04:02:42;7.25;;;3.33;;
50569;SDS011;36525;49.398;7.614;2023-08-21T04:05:09;9.38;;;4.18;;
50569;SDS011;36525;49.398;7.614;2023-08-21T04:07:37;6.63;;;4.38;;
50569;SDS011;36525;49.398;7.614;2023-08-21T04:10:05;13.48;;;5.07;;
50569;SDS011;36525;49.398;7.614;2023-08-21T04:12:33;12.68;;;5.47;;
50569;SDS011;36525;49.398;7.614;2023-08-21T04:15:00;9.48;;;5.20;;
50569;SDS011;36525;49.398;7.614;2023-08-21T04:17:27;7.75;;;4.32;;
50569;SDS011;36525;49.398;7.614;2023-08-21T04:19:54;7.53;;;5.95;;
50569;SDS011;36525;49.398;7.614;2023-08-21T04:22:22;7.22;;;5.78;;
50569;SDS011;36525;49.398;7.614;2023-08-21T04:24:49;11.02;;;5.75;;
50569;SDS011;36525;49.398;7.614;2023-08-21T04:27:16;8.40;;;3.80;;
50569;SDS011;36525;49.398;7.614;2023-08-21T04:29:43;8.73;;;4.25;;
50569;SDS011;36525;49.398;7.614;2023-08-21T04:32:10;8.93;;;4.70;;
50569;SDS011;36525;49.398;7.614;2023-08-21T04:34:38;7.72;;;5.50;;
50569;SDS011;36525;49.398;7.614;2023-08-21T04:37:05;8.25;;;5.20;;
50569;SDS011;36525;49.398;7.614;2023-08-21T04:39:33;11.63;;;4.72;;
50569;SDS011;36525;49.398;7.614;2023-08-21T04:42:01;6.20;;;4.20;;
50569;SDS011;36525;49.398;7.614;2023-08-21T04:44:29;9.38;;;4.10;;
50569;SDS011;36525;49.398;7.614;2023-08-21T04:46:56;11.75;;;5.55;;
50569;SDS011;36525;49.398;7.614;2023-08-21T04:49:23;8.52;;;4.90;;
50569;SDS011;36525;49.398;7.614;2023-08-21T04:51:50;6.85;;;5.38;;
50569;SDS011;36525;49.398;7.614;2023-08-21T04:54:18;8.27;;;5.07;;
50569;SDS011;36525;49.398;7.614;2023-08-21T04:56:45;4.93;;;3.60;;
50569;SDS011;36525;49.398;7.614;2023-08-21T04:59:12;5.90;;;3.50;;
50569;SDS011;36525;49.398;7.614;2023-08-21T05:01:39;7.68;;;3.55;;
50569;SDS011;36525;49.398;7.614;2023-08-21T05:04:10;6.30;;;3.83;;
50569;SDS011;36525;49.398;7.614;2023-08-21T05:06:37;8.13;;;4.78;;
50569;SDS011;36525;49.398;7.614;2023-08-21T05:09:04;8.45;;;5.13;;
50569;SDS011;36525;49.398;7.614;2023-08-21T05:11:31;5.80;;;4.38;;
50569;SDS011;36525;49.398;7.614;2023-08-21T05:13:58;5.55;;;3.60;;
50569;SDS011;36525;49.398;7.614;2023-08-21T05:16:28;8.50;;;4.57;;
50569;SDS011;36525;49.398;7.614;2023-08-21T05:18:55;8.80;;;4.78;;
50569;SDS011;36525;49.398;7.614;2023-08-21T05:21:22;6.00;;;3.67;;
50569;SDS011;36525;49.398;7.614;2023-08-21T05:23:49;7.32;;;3.45;;
50569;SDS011;36525;49.398;7.614;2023-08-21T05:26:16;4.63;;;3.33;;
50569;SDS011;36525;49.398;7.614;2023-08-21T05:28:43;11.70;;;4.20;;
50569;SDS011;36525;49.398;7.614;2023-08-21T05:31:10;6.75;;;4.60;;
50569;SDS011;36525;49.398;7.614;2023-08-21T05:33:37;7.05;;;4.97;;
50569;SDS011;36525;49.398;7.614;2023-08-21T05:36:05;8.07;;;5.05;;
50569;SDS011;36525;49.398;7.614;2023-08-21T05:38:32;8.93;;;5.70;;
50569;SDS011;36525;49.398;7.614;2023-08-21T05:40:59;7.15;;;4.20;;
50569;SDS011;36525;49.398;7.614;2023-08-21T05:43:27;9.05;;;4.47;;
50569;SDS011;36525;49.398;7.614;2023-08-21T05:45:54;5.22;;;4.65;;
50569;SDS011;36525;49.398;7.614;2023-08-21T05:48:21;9.32;;;5.35;;
50569;SDS011;36525;49.398;7.614;2023-08-21T05:50:52;5.00;;;4.10;;
50569;SDS011;36525;49.398;7.614;2023-08-21T05:53:20;5.45;;;3.75;;
50569;SDS011;36525;49.398;7.614;2023-08-21T05:55:47;7.78;;;5.35;;
50569;SDS011;36525;49.398;7.614;2023-08-21T05:58:14;6.97;;;4.95;;
50569;SDS011;36525;49.398;7.614;2023-08-21T06:00:41;6.95;;;4.72;;
50569;SDS011;36525;49.398;7.614;2023-08-21T06:03:10;8.18;;;5.43;;
50569;SDS011;36525;49.398;7.614;2023-08-21T06:05:38;11.57;;;5.97;;
50569;SDS011;36525;49.398;7.614;2023-08-21T06:08:05;7.05;;;5.82;;
50569;SDS011;36525;49.398;7.614;2023-08-21T06:10:35;8.00;;;6.07;;
50569;SDS011;36525;49.398;7.614;2023-08-21T06:13:02;8.63;;;6.55;;
50569;SDS011;36525;49.398;7.614;2023-08-21T06:15:29;8.68;;;6.38;;
50569;SDS011;36525;49.398;7.614;2023-08-21T06:17:58;11.55;;;6.32;;
50569;SDS011;36525;49.398;7.614;2023-08-21T06:20:26;7.18;;;5.93;;
50569;SDS011;36525;49.398;7.614;2023-08-21T06:22:53;9.77;;;6.30;;
50569;SDS011;36525;49.398;7.614;2023-08-21T06:25:21;6.40;;;5.35;;
50569;SDS011;36525;49.398;7.614;2023-08-21T06:27:48;7.60;;;6.03;;
50569;SDS011;36525;49.398;7.614;2023-08-21T06:30:24;8.95;;;5.97;;
50569;SDS011;36525;49.398;7.614;2023-08-21T06:32:55;10.10;;;5.97;;
50569;SDS011;36525;49.398;7.614;2023-08-21T06:35:23;7.57;;;5.47;;
50569;SDS011;36525;49.398;7.614;2023-08-21T06:37:50;8.55;;;5.88;;
50569;SDS011;36525;49.398;7.614;2023-08-21T06:40:17;9.38;;;5.60;;
50569;SDS011;36525;49.398;7.614;2023-08-21T06:42:44;7.25;;;5.47;;
50569;SDS011;36525;49.398;7.614;2023-08-21T06:45:12;8.25;;;5.72;;
50569;SDS011;36525;49.398;7.614;2023-08-21T06:47:39;6.60;;;5.70;;
50569;SDS011;36525;49.398;7.614;2023-08-21T06:50:07;7.03;;;5.72;;
50569;SDS011;36525;49.398;7.614;2023-08-21T06:52:34;7.55;;;5.53;;
50569;SDS011;36525;49.398;7.614;2023-08-21T06:55:02;6.72;;;5.28;;
50569;SDS011;36525;49.398;7.614;2023-08-21T06:57:30;9.65;;;5.68;;
50569;SDS011;36525;49.398;7.614;2023-08-21T06:59:59;7.50;;;5.28;;
50569;SDS011;36525;49.398;7.614;2023-08-21T07:02:26;6.10;;;5.50;;
50569;SDS011;36525;49.398;7.614;2023-08-21T07:04:53;6.07;;;5.13;;
50569;SDS011;36525;49.398;7.614;2023-08-21T07:07:21;6.05;;;5.30;;
50569;SDS011;36525;49.398;7.614;2023-08-21T07:09:49;7.65;;;5.60;;
50569;SDS011;36525;49.398;7.614;2023-08-21T07:12:16;9.18;;;6.07;;
50569;SDS011;36525;49.398;7.614;2023-08-21T07:14:43;8.85;;;5.03;;
50569;SDS011;36525;49.398;7.614;2023-08-21T07:17:10;8.55;;;5.03;;
50569;SDS011;36525;49.398;7.614;2023-08-21T07:19:37;6.95;;;5.35;;
50569;SDS011;36525;49.398;7.614;2023-08-21T07:22:04;7.85;;;5.30;;
50569;SDS011;36525;49.398;7.614;2023-08-21T07:24:31;7.95;;;5.05;;
50569;SDS011;36525;49.398;7.614;2023-08-21T07:26:58;7.95;;;4.50;;
50569;SDS011;36525;49.398;7.614;2023-08-21T07:29:25;8.80;;;4.72;;
50569;SDS011;36525;49.398;7.614;2023-08-21T07:31:52;8.30;;;4.75;;
50569;SDS011;36525;49.398;7.614;2023-08-21T07:34:20;8.77;;;5.18;;
50569;SDS011;36525;49.398;7.614;2023-08-21T07:36:49;9.68;;;4.30;;
50569;SDS011;36525;49.398;7.614;2023-08-21T07:39:17;7.47;;;5.05;;
50569;SDS011;36525;49.398;7.614;2023-08-21T07:41:44;11.63;;;4.93;;
50569;SDS011;36525;49.398;7.614;2023-08-21T07:44:12;5.55;;;5.00;;
50569;SDS011;36525;49.398;7.614;2023-08-21T07:46:41;8.45;;;5.72;;
50569;SDS011;36525;49.398;7.614;2023-08-21T07:49:08;6.10;;;4.50;;
50569;SDS011;36525;49.398;7.614;2023-08-21T07:51:35;8.73;;;4.97;;
50569;SDS011;36525;49.398;7.614;2023-08-21T07:54:03;7.03;;;4.90;;
50569;SDS011;36525;49.398;7.614;2023-08-21T07:56:30;8.20;;;4.63;;
50569;SDS011;36525;49.398;7.614;2023-08-21T07:58:57;7.10;;;4.97;;
50569;SDS011;36525;49.398;7.614;2023-08-21T08:01:28;8.53;;;4.93;;
50569;SDS011;36525;49.398;7.614;2023-08-21T08:03:55;7.00;;;4.53;;
50569;SDS011;36525;49.398;7.614;2023-08-21T08:06:23;8.50;;;4.70;;
50569;SDS011;36525;49.398;7.614;2023-08-21T08:08:50;6.88;;;4.75;;
50569;SDS011;36525;49.398;7.614;2023-08-21T08:11:18;7.25;;;4.97;;
50569;SDS011;36525;49.398;7.614;2023-08-21T08:13:45;9.18;;;4.80;;
50569;SDS011;36525;49.398;7.614;2023-08-21T08:16:13;6.40;;;4.35;;
50569;SDS011;36525;49.398;7.614;2023-08-21T08:18:40;10.32;;;4.50;;
50569;SDS011;36525;49.398;7.614;2023-08-21T08:21:07;7.68;;;4.47;;
50569;SDS011;36525;49.398;7.614;2023-08-21T08:23:35;5.35;;;3.78;;
50569;SDS011;36525;49.398;7.614;2023-08-21T08:26:02;8.55;;;3.95;;
50569;SDS011;36525;49.398;7.614;2023-08-21T08:28:29;6.07;;;4.25;;
50569;SDS011;36525;49.398;7.614;2023-08-21T08:30:56;7.40;;;3.35;;
50569;SDS011;36525;49.398;7.614;2023-08-21T08:33:24;5.82;;;3.40;;
50569;SDS011;36525;49.398;7.614;2023-08-21T08:35:51;4.72;;;3.40;;
50569;SDS011;36525;49.398;7.614;2023-08-21T08:38:18;4.75;;;3.05;;
50569;SDS011;36525;49.398;7.614;2023-08-21T08:40:47;6.05;;;3.10;;
50569;SDS011;36525;49.398;7.614;2023-08-21T08:43:15;5.90;;;3.05;;
50569;SDS011;36525;49.398;7.614;2023-08-21T08:45:43;3.38;;;2.35;;
50569;SDS011;36525;49.398;7.614;2023-08-21T08:48:14;4.20;;;1.92;;
50569;SDS011;36525;49.398;7.614;2023-08-21T08:50:43;4.47;;;1.95;;
50569;SDS011;36525;49.398;7.614;2023-08-21T08:53:11;3.17;;;1.80;;
50569;SDS011;36525;49.398;7.614;2023-08-21T08:55:43;3.38;;;2.00;;
50569;SDS011;36525;49.398;7.614;2023-08-21T08:58:11;2.80;;;1.67;;
50569;SDS011;36525;49.398;7.614;2023-08-21T09:00:39;3.40;;;1.92;;
50569;SDS011;36525;49.398;7.614;2023-08-21T09:03:06;4.50;;;2.13;;
50569;SDS011;36525;49.398;7.614;2023-08-21T09:05:35;7.13;;;2.45;;
50569;SDS011;36525;49.398;7.614;2023-08-21T09:10:38;3.78;;;2.75;;
50569;SDS011;36525;49.398;7.614;2023-08-21T09:13:17;3.58;;;2.25;;
50569;SDS011;36525;49.398;7.614;2023-08-21T09:15:51;3.67;;;2.40;;
50569;SDS011;36525;49.398;7.614;2023-08-21T09:18:22;7.10;;;2.63;;
50569;SDS011;36525;49.398;7.614;2023-08-21T09:20:49;6.95;;;2.42;;
50569;SDS011;36525;49.398;7.614;2023-08-21T09:23:17;6.28;;;2.50;;
50569;SDS011;36525;49.398;7.614;2023-08-21T09:25:45;4.50;;;2.22;;
50569;SDS011;36525;49.398;7.614;2023-08-21T09:28:14;4.23;;;2.33;;
50569;SDS011;36525;49.398;7.614;2023-08-21T09:30:50;3.35;;;2.20;;
50569;SDS011;36525;49.398;7.614;2023-08-21T09:33:25;7.53;;;2.33;;
50569;SDS011;36525;49.398;7.614;2023-08-21T09:35:52;3.75;;;1.90;;
50569;SDS011;36525;49.398;7.614;2023-08-21T09:38:21;5.03;;;2.03;;
50569;SDS011;36525;49.398;7.614;2023-08-21T09:40:50;5.43;;;2.35;;
50569;SDS011;36525;49.398;7.614;2023-08-21T09:43:20;4.57;;;1.77;;
50569;SDS011;36525;49.398;7.614;2023-08-21T09:45:49;4.63;;;2.08;;
50569;SDS011;36525;49.398;7.614;2023-08-21T09:48:22;5.90;;;1.80;;
50569;SDS011;36525;49.398;7.614;2023-08-21T09:50:53;2.78;;;1.40;;
50569;SDS011;36525;49.398;7.614;2023-08-21T09:53:21;2.80;;;1.55;;
50569;SDS011;36525;49.398;7.614;2023-08-21T09:55:52;3.92;;;1.40;;
50569;SDS011;36525;49.398;7.614;2023-08-21T09:58:21;3.30;;;1.42;;
50569;SDS011;36525;49.398;7.614;2023-08-21T10:00:49;4.57;;;2.05;;
50569;SDS011;36525;49.398;7.614;2023-08-21T10:03:19;4.18;;;1.63;;
50569;SDS011;36525;49.398;7.614;2023-08-21T10:05:48;4.20;;;1.70;;
50569;SDS011;36525;49.398;7.614;2023-08-21T10:08:16;3.15;;;1.63;;
50569;SDS011;36525;49.398;7.614;2023-08-21T10:10:57;5.22;;;1.77;;
50569;SDS011;36525;49.398;7.614;2023-08-21T10:13:29;2.55;;;1.50;;
50569;SDS011;36525;49.398;7.614;2023-08-21T10:15:57;3.72;;;1.90;;
50569;SDS011;36525;49.398;7.614;2023-08-21T10:18:25;4.88;;;1.75;;
50569;SDS011;36525;49.398;7.614;2023-08-21T10:21:17;2.47;;;1.60;;
50569;SDS011;36525;49.398;7.614;2023-08-21T10:23:48;4.53;;;1.55;;
50569;SDS011;36525;49.398;7.614;2023-08-21T10:26:21;2.33;;;1.55;;
50569;SDS011;36525;49.398;7.614;2023-08-21T10:31:33;2.17;;;1.30;;
50569;SDS011;36525;49.398;7.614;2023-08-21T10:34:10;3.75;;;1.40;;
50569;SDS011;36525;49.398;7.614;2023-08-21T10:39:18;2.42;;;1.20;;
50569;SDS011;36525;49.398;7.614;2023-08-21T10:44:35;3.00;;;1.10;;
50569;SDS011;36525;49.398;7.614;2023-08-21T10:47:22;2.70;;;1.30;;
50569;SDS011;36525;49.398;7.614;2023-08-21T10:49:56;5.25;;;1.67;;
50569;SDS011;36525;49.398;7.614;2023-08-21T10:52:38;3.28;;;1.15;;
50569;SDS011;36525;49.398;7.614;2023-08-21T10:55:08;4.63;;;1.00;;
50569;SDS011;36525;49.398;7.614;2023-08-21T10:57:36;4.43;;;1.20;;
50569;SDS011;36525;49.398;7.614;2023-08-21T11:00:05;2.75;;;1.00;;
50569;SDS011;36525;49.398;7.614;2023-08-21T11:02:42;2.45;;;1.00;;
50569;SDS011;36525;49.398;7.614;2023-08-21T11:05:12;3.20;;;1.20;;
50569;SDS011;36525;49.398;7.614;2023-08-21T11:07:45;3.13;;;1.10;;
50569;SDS011;36525;49.398;7.614;2023-08-21T11:10:14;3.85;;;1.42;;
50569;SDS011;36525;49.398;7.614;2023-08-21T11:12:55;5.20;;;1.20;;
50569;SDS011;36525;49.398;7.614;2023-08-21T11:15:27;4.53;;;1.17;;
50569;SDS011;36525;49.398;7.614;2023-08-21T11:20:31;3.05;;;1.02;;
50569;SDS011;36525;49.398;7.614;2023-08-21T11:23:00;5.72;;;1.13;;
50569;SDS011;36525;49.398;7.614;2023-08-21T11:25:38;3.53;;;1.27;;
50569;SDS011;36525;49.398;7.614;2023-08-21T11:28:06;3.63;;;0.98;;
50569;SDS011;36525;49.398;7.614;2023-08-21T11:30:35;4.03;;;1.10;;
50569;SDS011;36525;49.398;7.614;2023-08-21T11:33:10;3.05;;;1.30;;
50569;SDS011;36525;49.398;7.614;2023-08-21T11:35:39;2.42;;;1.20;;
50569;SDS011;36525;49.398;7.614;2023-08-21T11:38:14;2.90;;;1.15;;
50569;SDS011;36525;49.398;7.614;2023-08-21T11:43:37;4.80;;;1.15;;
50569;SDS011;36525;49.398;7.614;2023-08-21T11:46:06;4.32;;;1.40;;
50569;SDS011;36525;49.398;7.614;2023-08-21T11:48:37;2.60;;;1.10;;
50569;SDS011;36525;49.398;7.614;2023-08-21T11:51:06;3.97;;;1.00;;
50569;SDS011;36525;49.398;7.614;2023-08-21T11:53:41;2.85;;;1.10;;
50569;SDS011;36525;49.398;7.614;2023-08-21T11:56:09;2.15;;;1.20;;
50569;SDS011;36525;49.398;7.614;2023-08-21T11:58:39;2.90;;;1.00;;
50569;SDS011;36525;49.398;7.614;2023-08-21T12:01:07;3.15;;;1.30;;
50569;SDS011;36525;49.398;7.614;2023-08-21T12:03:39;3.08;;;1.25;;
50569;SDS011;36525;49.398;7.614;2023-08-21T12:06:08;3.40;;;1.30;;
50569;SDS011;36525;49.398;7.614;2023-08-21T12:08:36;2.80;;;1.10;;
50569;SDS011;36525;49.398;7.614;2023-08-21T12:11:07;1.98;;;1.25;;
50569;SDS011;36525;49.398;7.614;2023-08-21T12:13:34;3.28;;;1.20;;
50569;SDS011;36525;49.398;7.614;2023-08-21T12:16:02;2.45;;;1.17;;
50569;SDS011;36525;49.398;7.614;2023-08-21T12:18:30;3.45;;;1.42;;
50569;SDS011;36525;49.398;7.614;2023-08-21T12:20:57;3.60;;;1.13;;
50569;SDS011;36525;49.398;7.614;2023-08-21T12:23:24;3.22;;;1.15;;
50569;SDS011;36525;49.398;7.614;2023-08-21T12:25:51;3.33;;;1.48;;
50569;SDS011;36525;49.398;7.614;2023-08-21T12:28:19;2.65;;;1.02;;
50569;SDS011;36525;49.398;7.614;2023-08-21T12:30:46;3.55;;;1.08;;
50569;SDS011;36525;49.398;7.614;2023-08-21T12:33:13;2.13;;;1.13;;
50569;SDS011;36525;49.398;7.614;2023-08-21T12:35:49;3.10;;;1.08;;
50569;SDS011;36525;49.398;7.614;2023-08-21T12:38:16;3.50;;;1.35;;
50569;SDS011;36525;49.398;7.614;2023-08-21T12:40:43;2.13;;;0.88;;
50569;SDS011;36525;49.398;7.614;2023-08-21T12:43:11;2.28;;;1.08;;
50569;SDS011;36525;49.398;7.614;2023-08-21T12:45:38;2.30;;;1.05;;
50569;SDS011;36525;49.398;7.614;2023-08-21T12:48:08;3.00;;;1.20;;
50569;SDS011;36525;49.398;7.614;2023-08-21T12:50:35;2.55;;;1.17;;
50569;SDS011;36525;49.398;7.614;2023-08-21T12:53:02;3.03;;;0.90;;
50569;SDS011;36525;49.398;7.614;2023-08-21T12:55:29;3.22;;;1.23;;
50569;SDS011;36525;49.398;7.614;2023-08-21T12:57:59;2.33;;;1.00;;
50569;SDS011;36525;49.398;7.614;2023-08-21T13:00:26;2.47;;;0.80;;
50569;SDS011;36525;49.398;7.614;2023-08-21T13:02:56;2.28;;;1.00;;
50569;SDS011;36525;49.398;7.614;2023-08-21T13:05:23;2.25;;;1.05;;
50569;SDS011;36525;49.398;7.614;2023-08-21T13:07:50;2.75;;;0.93;;
50569;SDS011;36525;49.398;7.614;2023-08-21T13:10:21;4.22;;;1.23;;
50569;SDS011;36525;49.398;7.614;2023-08-21T13:12:48;4.70;;;1.30;;
50569;SDS011;36525;49.398;7.614;2023-08-21T13:15:16;2.60;;;1.27;;
50569;SDS011;36525;49.398;7.614;2023-08-21T13:17:43;3.60;;;1.15;;
50569;SDS011;36525;49.398;7.614;2023-08-21T13:20:13;5.10;;;1.10;;
50569;SDS011;36525;49.398;7.614;2023-08-21T13:22:47;2.28;;;0.88;;
50569;SDS011;36525;49.398;7.614;2023-08-21T13:25:18;5.55;;;1.45;;
50569;SDS011;36525;49.398;7.614;2023-08-21T13:27:49;2.30;;;1.05;;
50569;SDS011;36525;49.398;7.614;2023-08-21T13:30:18;2.55;;;1.00;;
50569;SDS011;36525;49.398;7.614;2023-08-21T13:32:50;2.03;;;0.95;;
50569;SDS011;36525;49.398;7.614;2023-08-21T13:35:21;3.83;;;1.20;;
50569;SDS011;36525;49.398;7.614;2023-08-21T13:37:49;4.03;;;0.85;;
50569;SDS011;36525;49.398;7.614;2023-08-21T13:40:17;2.65;;;1.10;;
50569;SDS011;36525;49.398;7.614;2023-08-21T13:42:44;2.45;;;1.27;;
50569;SDS011;36525;49.398;7.614;2023-08-21T13:45:15;4.07;;;1.00;;
50569;SDS011;36525;49.398;7.614;2023-08-21T13:47:45;2.63;;;1.00;;
50569;SDS011;36525;49.398;7.614;2023-08-21T13:50:15;2.10;;;0.90;;
50569;SDS011;36525;49.398;7.614;2023-08-21T13:52:53;2.25;;;0.90;;
50569;SDS011;36525;49.398;7.614;2023-08-21T13:55:41;2.00;;;1.10;;
50569;SDS011;36525;49.398;7.614;2023-08-21T13:58:08;1.70;;;0.90;;
50569;SDS011;36525;49.398;7.614;2023-08-21T14:00:35;2.28;;;0.90;;
50569;SDS011;36525;49.398;7.614;2023-08-21T14:03:02;3.92;;;0.80;;
50569;SDS011;36525;49.398;7.614;2023-08-21T14:05:29;3.42;;;0.80;;
50569;SDS011;36525;49.398;7.614;2023-08-21T14:07:57;4.10;;;1.00;;
50569;SDS011;36525;49.398;7.614;2023-08-21T14:10:24;4.90;;;0.80;;
50569;SDS011;36525;49.398;7.614;2023-08-21T14:12:52;2.50;;;0.80;;
50569;SDS011;36525;49.398;7.614;2023-08-21T14:15:19;2.08;;;0.88;;
50569;SDS011;36525;49.398;7.614;2023-08-21T14:17:46;4.35;;;0.90;;
50569;SDS011;36525;49.398;7.614;2023-08-21T14:20:15;3.63;;;0.80;;
50569;SDS011;36525;49.398;7.614;2023-08-21T14:22:42;3.20;;;1.15;;
50569;SDS011;36525;49.398;7.614;2023-08-21T14:25:11;5.30;;;0.98;;
50569;SDS011;36525;49.398;7.614;2023-08-21T14:27:38;2.28;;;0.90;;
50569;SDS011;36525;49.398;7.614;2023-08-21T14:30:06;3.38;;;1.10;;
50569;SDS011;36525;49.398;7.614;2023-08-21T14:32:34;3.65;;;0.90;;
50569;SDS011;36525;49.398;7.614;2023-08-21T14:35:04;3.53;;;1.00;;
50569;SDS011;36525;49.398;7.614;2023-08-21T14:37:35;2.10;;;0.90;;
50569;SDS011;36525;49.398;7.614;2023-08-21T14:40:03;3.78;;;1.02;;
50569;SDS011;36525;49.398;7.614;2023-08-21T14:42:34;3.80;;;0.90;;
50569;SDS011;36525;49.398;7.614;2023-08-21T14:45:03;1.85;;;0.80;;
50569;SDS011;36525;49.398;7.614;2023-08-21T14:47:31;5.22;;;1.13;;
50569;SDS011;36525;49.398;7.614;2023-08-21T14:49:59;2.08;;;0.80;;
50569;SDS011;36525;49.398;7.614;2023-08-21T14:52:26;2.17;;;0.80;;
50569;SDS011;36525;49.398;7.614;2023-08-21T14:54:53;2.72;;;0.90;;
50569;SDS011;36525;49.398;7.614;2023-08-21T14:57:20;2.40;;;0.90;;
50569;SDS011;36525;49.398;7.614;2023-08-21T14:59:47;3.13;;;0.80;;
50569;SDS011;36525;49.398;7.614;2023-08-21T15:02:14;1.95;;;0.80;;
50569;SDS011;36525;49.398;7.614;2023-08-21T15:04:42;3.00;;;1.13;;
50569;SDS011;36525;49.398;7.614;2023-08-21T15:07:09;2.42;;;0.85;;
50569;SDS011;36525;49.398;7.614;2023-08-21T15:09:37;2.88;;;0.77;;
50569;SDS011;36525;49.398;7.614;2023-08-21T15:12:04;2.03;;;0.90;;
50569;SDS011;36525;49.398;7.614;2023-08-21T15:14:32;2.55;;;1.00;;